createdAt,value
2023-03-15T00:01:15.969Z,100395.72
2023-03-15T00:03:43.867Z,100404.47
2023-03-15T00:06:11.398Z,100378.50
2023-03-15T00:08:38.489Z,100391.00
2023-03-15T00:11:05.989Z,100411.78
2023-03-15T00:13:33.828Z,100413.59
2023-03-15T00:16:03.691Z,100408.28
2023-03-15T00:18:31.080Z,100402.09
2023-03-15T00:20:58.852Z,100401.38
2023-03-15T00:23:25.931Z,100382.19
2023-03-15T00:25:53.910Z,100422.75
2023-03-15T00:28:21.305Z,100416.03
2023-03-15T00:30:48.271Z,100397.72
2023-03-15T00:33:16.229Z,100402.75
2023-03-15T00:35:45.353Z,100434.94
2023-03-15T00:38:14.221Z,100436.59
2023-03-15T00:40:42.762Z,100418.59
2023-03-15T00:43:09.732Z,100432.28
2023-03-15T00:45:37.287Z,100432.91
2023-03-15T00:48:04.785Z,100430.66
2023-03-15T00:50:31.648Z,100433.78
2023-03-15T00:52:58.853Z,100447.47
2023-03-15T00:55:28.610Z,100449.41
2023-03-15T00:57:57.143Z,100458.88
2023-03-15T01:00:25.054Z,100456.94
2023-03-15T01:02:55.727Z,100447.06
2023-03-15T01:05:23.457Z,100459.28
2023-03-15T01:07:51.818Z,100470.63
2023-03-15T01:10:19.562Z,100448.72
2023-03-15T01:12:46.466Z,100471.16
2023-03-15T01:15:15.310Z,100464.09
2023-03-15T01:17:42.783Z,100468.25
2023-03-15T01:20:13.663Z,100466.84
2023-03-15T01:22:42.422Z,100471.16
2023-03-15T01:25:10.336Z,100441.84
2023-03-15T01:27:37.986Z,100458.50
2023-03-15T01:30:06.134Z,100473.28
2023-03-15T01:32:33.977Z,100476.09
2023-03-15T01:35:00.856Z,100478.75
2023-03-15T01:37:28.135Z,100472.19
2023-03-15T01:39:55.507Z,100490.56
2023-03-15T01:42:22.475Z,100489.00
2023-03-15T01:45:02.123Z,100496.09
2023-03-15T01:47:29.359Z,100470.38
2023-03-15T01:50:09.618Z,100485.31
2023-03-15T01:52:41.930Z,100507.41
2023-03-15T01:55:20.863Z,100476.16
2023-03-15T01:58:06.847Z,100503.22
2023-03-15T02:00:37.255Z,100491.16
2023-03-15T02:03:14.783Z,100504.22
2023-03-15T02:05:56.330Z,100512.44
2023-03-15T02:08:42.416Z,100492.63
2023-03-15T02:11:09.379Z,100507.47
2023-03-15T02:13:36.406Z,100500.97
2023-03-15T02:16:08.969Z,100508.78
2023-03-15T02:18:45.387Z,100512.28
2023-03-15T02:21:43.125Z,100508.13
2023-03-15T02:24:24.328Z,100526.38
2023-03-15T02:26:55.622Z,100523.00
2023-03-15T02:29:26.077Z,100518.22
2023-03-15T02:31:53.797Z,100510.59
2023-03-15T02:34:25.266Z,100528.75
2023-03-15T02:36:54.188Z,100521.81
2023-03-15T02:39:22.962Z,100531.28
2023-03-15T02:41:57.846Z,100545.41
2023-03-15T02:44:37.512Z,100528.25
2023-03-15T02:47:22.938Z,100544.41
2023-03-15T02:49:53.733Z,100546.22
2023-03-15T02:52:22.946Z,100559.09
2023-03-15T02:54:50.394Z,100551.94
2023-03-15T02:57:19.310Z,100547.75
2023-03-15T02:59:50.901Z,100568.81
2023-03-15T03:02:18.425Z,100561.06
2023-03-15T03:04:45.618Z,100556.13
2023-03-15T03:07:12.728Z,100558.25
2023-03-15T03:09:47.081Z,100573.31
2023-03-15T03:12:14.945Z,100575.03
2023-03-15T03:14:45.934Z,100580.22
2023-03-15T03:17:17.013Z,100574.19
2023-03-15T03:19:44.573Z,100580.00
2023-03-15T03:22:13.321Z,100581.03
2023-03-15T03:24:46.061Z,100587.09
2023-03-15T03:27:15.419Z,100579.31
2023-03-15T03:29:44.771Z,100592.19
2023-03-15T03:32:12.163Z,100596.75
2023-03-15T03:34:39.219Z,100609.16
2023-03-15T03:37:06.650Z,100613.25
2023-03-15T03:39:51.605Z,100623.03
2023-03-15T03:42:18.593Z,100610.09
2023-03-15T03:44:45.567Z,100620.94
2023-03-15T03:47:12.580Z,100640.72
2023-03-15T03:49:39.865Z,100642.34
2023-03-15T03:52:07.089Z,100635.59
2023-03-15T03:54:34.321Z,100648.47
2023-03-15T03:57:01.317Z,100637.25
2023-03-15T03:59:32.770Z,100649.97
2023-03-15T04:02:04.528Z,100641.13
2023-03-15T04:04:31.783Z,100664.53
2023-03-15T04:06:59.295Z,100663.69
2023-03-15T04:09:31.728Z,100637.81
2023-03-15T04:11:58.726Z,100673.16
2023-03-15T04:14:25.727Z,100660.25
2023-03-15T04:16:54.569Z,100674.25
2023-03-15T04:19:23.162Z,100690.84
2023-03-15T04:21:52.368Z,100678.94
2023-03-15T04:24:39.789Z,100680.41
2023-03-15T04:27:14.629Z,100700.69
2023-03-15T04:29:44.743Z,100684.16
2023-03-15T04:32:30.474Z,100680.50
2023-03-15T04:35:28.551Z,100700.81
2023-03-15T04:38:15.765Z,100689.69
2023-03-15T04:40:56.934Z,100687.09
2023-03-15T04:43:46.395Z,100710.03
2023-03-15T04:46:25.232Z,100713.03
2023-03-15T04:49:11.159Z,100715.84
2023-03-15T04:51:51.506Z,100715.25
2023-03-15T04:54:30.076Z,100705.00
2023-03-15T04:57:17.309Z,100697.03
2023-03-15T05:00:06.199Z,100727.50
2023-03-15T05:02:54.886Z,100697.16
2023-03-15T05:05:48.209Z,100739.69
2023-03-15T05:08:36.604Z,100743.16
2023-03-15T05:11:22.497Z,100737.25
2023-03-15T05:14:13.378Z,100742.72
2023-03-15T05:16:59.751Z,100754.00
2023-03-15T05:19:35.641Z,100744.56
2023-03-15T05:22:25.791Z,100744.69
2023-03-15T05:25:12.088Z,100773.59
2023-03-15T05:27:57.699Z,100774.81
2023-03-15T05:30:33.129Z,100786.00
2023-03-15T05:33:00.078Z,100769.41
2023-03-15T05:35:43.929Z,100770.34
2023-03-15T05:38:29.348Z,100802.75
2023-03-15T05:41:02.224Z,100784.91
2023-03-15T05:43:45.272Z,100799.78
2023-03-15T05:46:32.202Z,100807.84
2023-03-15T05:49:11.209Z,100799.66
2023-03-15T05:51:46.960Z,100812.75
2023-03-15T05:54:25.415Z,100808.69
2023-03-15T05:57:17.997Z,100828.94
2023-03-15T06:00:04.666Z,100837.97
2023-03-15T06:02:41.582Z,100812.00
2023-03-15T06:05:32.894Z,100839.13
2023-03-15T06:08:03.509Z,100860.03
2023-03-15T06:10:31.038Z,100859.66
2023-03-15T06:13:02.474Z,100860.59
2023-03-15T06:15:29.456Z,100870.91
2023-03-15T06:17:56.679Z,100858.56
2023-03-15T06:20:23.592Z,100878.50
2023-03-15T06:22:50.618Z,100869.06
2023-03-15T06:25:40.230Z,100873.19
2023-03-15T06:28:07.214Z,100883.84
2023-03-15T06:30:35.520Z,100865.25
2023-03-15T06:33:02.822Z,100880.03
2023-03-15T06:35:31.074Z,100892.19
2023-03-15T06:37:58.077Z,100910.28
2023-03-15T06:40:25.001Z,100913.94
2023-03-15T06:42:52.899Z,100905.69
2023-03-15T06:45:20.907Z,100911.81
2023-03-15T06:47:48.660Z,100928.31
2023-03-15T06:50:17.300Z,100935.19
2023-03-15T06:52:44.231Z,100948.56
2023-03-15T06:55:12.469Z,100940.59
2023-03-15T06:57:41.898Z,100947.44
2023-03-15T07:00:11.780Z,100953.97
2023-03-15T07:02:38.784Z,100945.78
2023-03-15T07:05:06.443Z,100947.41
2023-03-15T07:07:33.409Z,100972.44
2023-03-15T07:10:00.314Z,100960.81
2023-03-15T07:12:27.188Z,100967.19
2023-03-15T07:14:54.256Z,100964.34
2023-03-15T07:17:21.155Z,100971.31
2023-03-15T07:19:56.188Z,100965.47
2023-03-15T07:22:24.190Z,100984.59
2023-03-15T07:24:51.371Z,100967.78
2023-03-15T07:27:19.536Z,100978.56
2023-03-15T07:29:46.724Z,100988.53
2023-03-15T07:32:13.659Z,100990.47
2023-03-15T07:34:40.611Z,100987.63
2023-03-15T07:37:07.648Z,100998.56
2023-03-15T07:39:34.564Z,100971.63
2023-03-15T07:42:01.575Z,100998.56
2023-03-15T07:44:38.352Z,101000.25
2023-03-15T07:47:05.341Z,100995.03
2023-03-15T07:49:34.529Z,100990.22
2023-03-15T07:52:01.511Z,100994.53
2023-03-15T07:54:31.587Z,101009.06
2023-03-15T07:56:58.606Z,101014.31
2023-03-15T07:59:25.548Z,101008.97
2023-03-15T08:01:52.727Z,101018.56
2023-03-15T08:04:19.695Z,101027.78
2023-03-15T08:06:46.624Z,101036.88
2023-03-15T08:09:13.507Z,101034.00
2023-03-15T08:11:41.281Z,101025.28
2023-03-15T08:14:09.193Z,101046.38
2023-03-15T08:16:36.153Z,101029.19
2023-03-15T08:19:03.322Z,101050.31
2023-03-15T08:21:33.701Z,101052.91
2023-03-15T08:24:01.528Z,101044.03
2023-03-15T08:26:28.529Z,101052.66
2023-03-15T08:28:55.754Z,101075.13
2023-03-15T08:31:22.741Z,101059.47
2023-03-15T08:33:49.794Z,101080.22
2023-03-15T08:36:16.809Z,101082.75
2023-03-15T08:38:43.693Z,101076.34
2023-03-15T08:41:10.645Z,101099.06
2023-03-15T08:43:37.579Z,101104.41
2023-03-15T08:46:04.835Z,101099.53
2023-03-15T08:48:31.960Z,101105.16
2023-03-15T08:51:04.362Z,101115.72
2023-03-15T08:53:31.640Z,101100.44
2023-03-15T08:55:59.321Z,101115.81
2023-03-15T08:58:26.301Z,101116.13
2023-03-15T09:00:53.299Z,101117.06
2023-03-15T09:03:20.651Z,101118.75
2023-03-15T09:05:47.612Z,101122.75
2023-03-15T09:08:14.616Z,101114.25
2023-03-15T09:10:41.537Z,101132.47
2023-03-15T09:13:08.425Z,101116.25
2023-03-15T09:15:35.430Z,101133.00
2023-03-15T09:18:02.566Z,101134.47
2023-03-15T09:20:29.675Z,101119.28
2023-03-15T09:22:58.457Z,101127.38
2023-03-15T09:25:26.360Z,101135.69
2023-03-15T09:27:53.679Z,101129.13
2023-03-15T09:30:20.935Z,101130.91
2023-03-15T09:32:48.085Z,101140.84
2023-03-15T09:35:18.181Z,101150.69
2023-03-15T09:37:45.944Z,101147.38
2023-03-15T09:40:23.128Z,101146.03
2023-03-15T09:43:08.771Z,101143.59
2023-03-15T09:46:16.637Z,101153.75
2023-03-15T09:49:05.788Z,101147.22
2023-03-15T09:51:55.404Z,101143.97
2023-03-15T09:54:29.374Z,101152.56
2023-03-15T09:57:09.452Z,101156.16
2023-03-15T09:59:44.069Z,101157.16
2023-03-15T10:02:24.865Z,101140.38
2023-03-15T10:05:16.384Z,101159.69
2023-03-15T10:07:43.464Z,101140.22
2023-03-15T10:10:28.694Z,101155.56
2023-03-15T10:13:08.737Z,101146.09
2023-03-15T10:15:54.801Z,101159.22
2023-03-15T10:19:12.247Z,101162.22
2023-03-15T10:22:04.934Z,101156.69
2023-03-15T10:24:39.257Z,101156.16
2023-03-15T10:27:43.245Z,101155.44
2023-03-15T10:30:17.723Z,101160.19
2023-03-15T10:32:50.154Z,101155.59
2023-03-15T10:35:19.343Z,101157.38
2023-03-15T10:37:46.808Z,101152.81
2023-03-15T10:40:18.102Z,101158.47
2023-03-15T10:42:47.105Z,101165.28
2023-03-15T10:45:24.845Z,101169.78
2023-03-15T10:48:00.371Z,101172.19
2023-03-15T10:50:33.561Z,101170.75
2023-03-15T10:53:10.392Z,101180.25
2023-03-15T10:55:44.942Z,101178.63
2023-03-15T10:58:27.661Z,101190.22
2023-03-15T11:01:07.767Z,101188.50
2023-03-15T11:03:37.229Z,101183.78
2023-03-15T11:06:22.002Z,101201.81
2023-03-15T11:08:49.083Z,101209.38
2023-03-15T11:11:16.062Z,101206.59
2023-03-15T11:13:55.649Z,101209.81
2023-03-15T11:16:22.672Z,101208.63
2023-03-15T11:19:01.312Z,101215.44
2023-03-15T11:21:34.451Z,101203.59
2023-03-15T11:24:03.257Z,101216.63
2023-03-15T11:26:37.287Z,101229.22
2023-03-15T11:29:21.431Z,101218.63
2023-03-15T11:31:50.160Z,101232.09
2023-03-15T11:34:45.978Z,101240.59
2023-03-15T11:37:33.161Z,101212.97
2023-03-15T11:40:18.016Z,101225.81
2023-03-15T11:42:48.687Z,101239.50
2023-03-15T11:45:47.257Z,101233.47
2023-03-15T11:48:43.918Z,101240.75
2023-03-15T11:51:12.881Z,101245.44
2023-03-15T11:53:53.457Z,101276.25
2023-03-15T11:56:25.476Z,101286.31
2023-03-15T11:59:16.222Z,101304.31
2023-03-15T12:01:55.908Z,101313.34
2023-03-15T12:04:37.832Z,101313.56
2023-03-15T12:07:30.113Z,101317.13
2023-03-15T12:09:58.185Z,101321.38
2023-03-15T12:12:25.117Z,101318.09
2023-03-15T12:15:19.663Z,101314.09
2023-03-15T12:18:00.336Z,101320.97
2023-03-15T12:20:40.837Z,101328.28
2023-03-15T12:23:19.614Z,101315.69
2023-03-15T12:25:57.409Z,101313.03
2023-03-15T12:29:01.348Z,101303.44
2023-03-15T12:31:52.581Z,101306.34
2023-03-15T12:34:31.750Z,101316.31
2023-03-15T12:37:10.343Z,101316.56
2023-03-15T12:39:46.614Z,101302.56
2023-03-15T12:42:36.585Z,101311.78
2023-03-15T12:45:15.756Z,101311.47
2023-03-15T12:47:50.056Z,101324.91
2023-03-15T12:50:50.917Z,101319.72
2023-03-15T12:53:37.126Z,101332.22
2023-03-15T12:56:30.019Z,101328.09
2023-03-15T12:59:10.486Z,101319.50
2023-03-15T13:01:37.931Z,101331.72
2023-03-15T13:04:04.915Z,101302.25
2023-03-15T13:06:52.689Z,101332.59
2023-03-15T13:09:47.912Z,101326.69
2023-03-15T13:12:41.602Z,101333.13
2023-03-15T13:15:14.772Z,101301.69
2023-03-15T13:17:50.754Z,101331.38
2023-03-15T13:20:57.333Z,101329.53
2023-03-15T13:23:30.355Z,101309.75
2023-03-15T13:26:40.321Z,101319.97
2023-03-15T13:29:07.130Z,101344.38
2023-03-15T13:31:34.440Z,101340.69
2023-03-15T13:34:15.244Z,101343.78
2023-03-15T13:36:57.958Z,101305.72
2023-03-15T13:39:34.970Z,101310.69
2023-03-15T13:42:06.232Z,101310.19
2023-03-15T13:44:34.323Z,101334.44
2023-03-15T13:47:01.342Z,101335.16
2023-03-15T13:49:34.493Z,101329.53
2023-03-15T13:52:12.070Z,101320.59
2023-03-15T13:54:40.406Z,101298.94
2023-03-15T13:57:25.000Z,101321.63
2023-03-15T14:00:11.830Z,101310.19
2023-03-15T14:02:58.822Z,101283.88
2023-03-15T14:05:32.965Z,101274.88
2023-03-15T14:08:04.485Z,101306.09
2023-03-15T14:10:37.147Z,101278.72
2023-03-15T14:13:29.373Z,101278.09
2023-03-15T14:16:06.690Z,101289.84
2023-03-15T14:18:39.024Z,101315.59
2023-03-15T14:21:31.244Z,101274.75
2023-03-15T14:24:05.888Z,101283.78
2023-03-15T14:26:33.164Z,101329.53
2023-03-15T14:29:08.385Z,101290.06
2023-03-15T14:31:40.870Z,101318.97
2023-03-15T14:34:35.308Z,101296.44
2023-03-15T14:37:09.738Z,101282.03
2023-03-15T14:39:42.512Z,101331.34
2023-03-15T14:42:12.348Z,101300.19
2023-03-15T14:44:39.326Z,101320.03
2023-03-15T14:47:16.318Z,101311.22
2023-03-15T14:49:43.554Z,101336.44
2023-03-15T14:52:13.798Z,101343.56
2023-03-15T14:54:47.227Z,101297.81
2023-03-15T14:57:14.185Z,101309.13
2023-03-15T14:59:41.091Z,101287.25
2023-03-15T15:02:17.257Z,101274.72
2023-03-15T15:04:44.505Z,101293.03
2023-03-15T15:07:13.766Z,101311.84
2023-03-15T15:09:48.310Z,101293.72
2023-03-15T15:12:15.346Z,101291.19
2023-03-15T15:14:44.805Z,101314.34
2023-03-15T15:17:14.551Z,101315.56
2023-03-15T15:19:41.563Z,101324.38
2023-03-15T15:22:11.170Z,101315.66
2023-03-15T15:24:38.293Z,101296.31
2023-03-15T15:27:05.387Z,101302.34
2023-03-15T15:29:32.347Z,101308.84
2023-03-15T15:31:59.363Z,101297.94
2023-03-15T15:34:26.404Z,101307.31
2023-03-15T15:36:57.000Z,101294.44
2023-03-15T15:39:27.678Z,101312.03
2023-03-15T15:41:54.815Z,101305.19
2023-03-15T15:44:25.657Z,101304.03
2023-03-15T15:46:52.926Z,101306.63
2023-03-15T15:49:21.089Z,101331.66
2023-03-15T15:51:49.736Z,101340.91
2023-03-15T15:54:25.318Z,101340.06
2023-03-15T15:56:58.095Z,101320.94
2023-03-15T15:59:25.723Z,101301.47
2023-03-15T16:02:02.856Z,101290.09
2023-03-15T16:04:30.434Z,101331.06
2023-03-15T16:07:01.649Z,101340.56
2023-03-15T16:09:31.771Z,101349.19
2023-03-15T16:11:58.861Z,101310.25
2023-03-15T16:14:26.067Z,101323.47
2023-03-15T16:16:54.298Z,101320.69
2023-03-15T16:19:21.236Z,101325.41
2023-03-15T16:21:50.843Z,101340.25
2023-03-15T16:24:22.565Z,101348.22
2023-03-15T16:26:50.870Z,101325.13
2023-03-15T16:29:24.358Z,101338.53
2023-03-15T16:31:51.571Z,101322.59
2023-03-15T16:34:19.732Z,101360.13
2023-03-15T16:36:50.049Z,101361.09
2023-03-15T16:39:17.903Z,101350.91
2023-03-15T16:41:44.805Z,101332.84
2023-03-15T16:44:20.733Z,101359.56
2023-03-15T16:46:48.451Z,101359.03
2023-03-15T16:49:15.789Z,101339.16
2023-03-15T16:51:47.998Z,101341.56
2023-03-15T16:54:27.359Z,101345.66
2023-03-15T16:57:01.674Z,101355.00
2023-03-15T16:59:29.061Z,101352.00
2023-03-15T17:01:56.055Z,101310.69
2023-03-15T17:04:23.067Z,101344.91
2023-03-15T17:09:23.550Z,101377.81
2023-03-15T17:11:53.311Z,101361.38
2023-03-15T17:14:30.425Z,101381.78
2023-03-15T17:16:57.456Z,101361.97
2023-03-15T17:19:24.895Z,101384.31
2023-03-15T17:21:53.142Z,101371.94
2023-03-15T17:24:21.103Z,101352.66
2023-03-15T17:26:48.316Z,101398.06
2023-03-15T17:29:16.031Z,101364.75
2023-03-15T17:31:44.556Z,101357.75
2023-03-15T17:34:11.565Z,101375.25
2023-03-15T17:36:38.768Z,101347.47
2023-03-15T17:39:07.967Z,101353.63
2023-03-15T17:41:37.524Z,101385.44
2023-03-15T17:44:04.806Z,101363.81
2023-03-15T17:46:33.128Z,101385.34
2023-03-15T17:49:01.323Z,101360.34
2023-03-15T17:51:32.176Z,101347.81
2023-03-15T17:54:00.351Z,101417.00
2023-03-15T17:56:29.543Z,101394.97
2023-03-15T17:58:56.859Z,101377.00
2023-03-15T18:01:30.130Z,101402.78
2023-03-15T18:03:57.283Z,101413.31
2023-03-15T18:06:24.921Z,101413.91
2023-03-15T18:08:51.976Z,101391.88
2023-03-15T18:11:27.024Z,101403.78
2023-03-15T18:13:57.225Z,101426.47
2023-03-15T18:16:24.498Z,101418.69
2023-03-15T18:18:51.397Z,101421.91
2023-03-15T18:21:27.278Z,101411.13
2023-03-15T18:23:55.113Z,101410.63
2023-03-15T18:26:24.763Z,101419.75
2023-03-15T18:28:51.673Z,101426.78
2023-03-15T18:31:23.928Z,101425.59
2023-03-15T18:33:54.208Z,101422.44
2023-03-15T18:36:21.462Z,101427.16
2023-03-15T18:38:48.689Z,101416.31
2023-03-15T18:41:21.850Z,101411.03
2023-03-15T18:43:50.159Z,101426.69
2023-03-15T18:46:24.189Z,101420.53
2023-03-15T18:48:56.005Z,101436.03
2023-03-15T18:51:28.254Z,101443.81
2023-03-15T18:53:56.412Z,101444.75
2023-03-15T18:56:27.021Z,101449.50
2023-03-15T18:58:54.876Z,101440.28
2023-03-15T19:01:24.567Z,101452.63
2023-03-15T19:03:52.701Z,101458.50
2023-03-15T19:06:21.368Z,101454.59
2023-03-15T19:08:53.206Z,101443.31
2023-03-15T19:11:23.767Z,101457.69
2023-03-15T19:13:53.294Z,101458.03
2023-03-15T19:16:21.435Z,101473.00
2023-03-15T19:18:49.602Z,101464.81
2023-03-15T19:21:18.759Z,101449.97
2023-03-15T19:23:47.049Z,101449.06
2023-03-15T19:26:14.042Z,101463.56
2023-03-15T19:28:41.128Z,101451.31
2023-03-15T19:31:09.175Z,101455.94
2023-03-15T19:33:36.182Z,101454.69
2023-03-15T19:36:03.597Z,101463.75
2023-03-15T19:38:30.507Z,101461.47
2023-03-15T19:41:03.555Z,101462.28
2023-03-15T19:43:30.592Z,101463.22
2023-03-15T19:45:57.526Z,101465.09
2023-03-15T19:48:24.465Z,101456.31
2023-03-15T19:50:51.481Z,101461.63
2023-03-15T19:53:18.366Z,101472.13
2023-03-15T19:55:45.302Z,101467.75
2023-03-15T19:58:12.171Z,101472.31
2023-03-15T20:00:39.100Z,101476.78
2023-03-15T20:03:06.020Z,101474.22
2023-03-15T20:05:34.691Z,101477.00
2023-03-15T20:08:02.144Z,101472.88
2023-03-15T20:10:31.678Z,101483.13
2023-03-15T20:12:59.137Z,101476.53
2023-03-15T20:15:29.327Z,101487.19
2023-03-15T20:17:56.380Z,101489.19
2023-03-15T20:20:23.773Z,101492.91
2023-03-15T20:22:51.017Z,101492.25
2023-03-15T20:25:19.248Z,101510.94
2023-03-15T20:27:46.478Z,101516.56
2023-03-15T20:30:16.157Z,101493.19
2023-03-15T20:32:43.565Z,101502.81
2023-03-15T20:35:10.855Z,101502.81
2023-03-15T20:37:40.713Z,101509.06
2023-03-15T20:40:12.585Z,101498.78
2023-03-15T20:42:39.754Z,101511.94
2023-03-15T20:45:07.964Z,101501.63
2023-03-15T20:47:35.454Z,101507.00
2023-03-15T20:50:03.064Z,101497.59
2023-03-15T20:52:30.036Z,101512.47
2023-03-15T20:54:56.958Z,101507.69
2023-03-15T20:57:48.670Z,101506.88
2023-03-15T21:00:18.503Z,101520.19
2023-03-15T21:02:46.983Z,101501.69
2023-03-15T21:05:14.608Z,101503.97
2023-03-15T21:07:41.621Z,101502.00
2023-03-15T21:10:10.632Z,101508.81
2023-03-15T21:12:37.723Z,101490.81
2023-03-15T21:15:05.270Z,101492.31
2023-03-15T21:17:33.150Z,101503.97
2023-03-15T21:20:00.750Z,101502.59
2023-03-15T21:22:27.796Z,101496.25
2023-03-15T21:24:56.305Z,101507.78
2023-03-15T21:27:26.159Z,101494.91
2023-03-15T21:29:53.677Z,101502.25
2023-03-15T21:32:20.745Z,101499.84
2023-03-15T21:34:47.678Z,101497.50
2023-03-15T21:37:14.622Z,101499.94
2023-03-15T21:39:41.622Z,101502.72
2023-03-15T21:42:08.558Z,101503.56
2023-03-15T21:44:36.229Z,101495.72
2023-03-15T21:47:04.800Z,101500.91
2023-03-15T21:49:32.730Z,101499.34
2023-03-15T21:52:00.141Z,101510.00
2023-03-15T21:54:27.136Z,101507.63
2023-03-15T21:56:54.195Z,101501.91
2023-03-15T21:59:27.865Z,101512.22
2023-03-15T22:01:56.044Z,101494.06
2023-03-15T22:04:26.501Z,101511.63
2023-03-15T22:06:53.604Z,101512.25
2023-03-15T22:09:23.246Z,101517.56
2023-03-15T22:11:50.509Z,101476.00
2023-03-15T22:14:17.995Z,101528.22
2023-03-15T22:16:45.039Z,101510.19
2023-03-15T22:19:11.943Z,101507.59
2023-03-15T22:21:38.998Z,101480.06
2023-03-15T22:24:06.389Z,101507.88
2023-03-15T22:26:33.363Z,101519.19
2023-03-15T22:29:00.692Z,101514.09
2023-03-15T22:31:31.263Z,101505.53
2023-03-15T22:33:58.538Z,101515.19
2023-03-15T22:36:25.624Z,101512.69
2023-03-15T22:38:52.555Z,101507.53
2023-03-15T22:41:20.295Z,101508.72
2023-03-15T22:43:47.270Z,101507.34
2023-03-15T22:46:14.396Z,101503.81
2023-03-15T22:48:41.346Z,101509.31
2023-03-15T22:51:10.937Z,101514.72
2023-03-15T22:53:37.898Z,101503.53
2023-03-15T22:56:05.292Z,101516.00
2023-03-15T22:58:32.358Z,101512.47
2023-03-15T23:00:59.549Z,101509.00
2023-03-15T23:03:26.982Z,101494.56
2023-03-15T23:05:55.364Z,101523.72
2023-03-15T23:08:24.922Z,101526.25
2023-03-15T23:10:53.027Z,101498.56
2023-03-15T23:13:20.053Z,101507.53
2023-03-15T23:15:47.276Z,101510.13
2023-03-15T23:18:14.718Z,101523.19
2023-03-15T23:20:42.733Z,101511.97
2023-03-15T23:23:09.962Z,101494.38
2023-03-15T23:25:38.905Z,101523.09
2023-03-15T23:28:07.427Z,101522.34
2023-03-15T23:30:35.997Z,101509.50
2023-03-15T23:33:03.978Z,101511.09
2023-03-15T23:35:32.565Z,101512.00
2023-03-15T23:37:59.784Z,101500.88
2023-03-15T23:40:28.628Z,101520.81
2023-03-15T23:42:59.481Z,101519.31
2023-03-15T23:45:28.334Z,101517.72
2023-03-15T23:47:55.701Z,101527.31
2023-03-15T23:50:26.015Z,101503.69
2023-03-15T23:52:55.524Z,101501.09
2023-03-15T23:55:24.018Z,101522.84
2023-03-15T23:57:51.276Z,101522.00
